sensor_id;sensor_type;location;lat;lon;timestamp;P1;durP1;ratioP1;P2;durP2;ratioP2
60068;SDS011;45945;53.350;55.922;2023-05-02T00:00:14;11.65;;;5.80;;
60068;SDS011;45945;53.350;55.922;2023-05-02T00:01:15;10.43;;;5.72;;
60068;SDS011;45945;53.350;55.922;2023-05-02T00:02:16;14.25;;;6.03;;
60068;SDS011;45945;53.350;55.922;2023-05-02T00:03:17;10.10;;;5.38;;
60068;SDS011;45945;53.350;55.922;2023-05-02T00:04:18;9.30;;;5.20;;
60068;SDS011;45945;53.350;55.922;2023-05-02T00:05:19;8.68;;;5.38;;
60068;SDS011;45945;53.350;55.922;2023-05-02T00:06:20;10.18;;;5.38;;
60068;SDS011;45945;53.350;55.922;2023-05-02T00:07:21;12.35;;;6.05;;
60068;SDS011;45945;53.350;55.922;2023-05-02T00:08:22;12.30;;;6.70;;
60068;SDS011;45945;53.350;55.922;2023-05-02T00:09:23;11.43;;;5.72;;
60068;SDS011;45945;53.350;55.922;2023-05-02T00:10:23;8.23;;;5.10;;
60068;SDS011;45945;53.350;55.922;2023-05-02T00:11:24;8.80;;;5.35;;
60068;SDS011;45945;53.350;55.922;2023-05-02T00:12:25;10.40;;;5.43;;
60068;SDS011;45945;53.350;55.922;2023-05-02T00:13:26;8.68;;;5.35;;
60068;SDS011;45945;53.350;55.922;2023-05-02T00:14:27;12.05;;;5.55;;
60068;SDS011;45945;53.350;55.922;2023-05-02T00:15:28;10.40;;;5.57;;
60068;SDS011;45945;53.350;55.922;2023-05-02T00:16:28;12.35;;;5.97;;
60068;SDS011;45945;53.350;55.922;2023-05-02T00:17:29;11.07;;;5.97;;
60068;SDS011;45945;53.350;55.922;2023-05-02T00:18:31;12.23;;;6.63;;
60068;SDS011;45945;53.350;55.922;2023-05-02T00:19:36;11.35;;;6.25;;
60068;SDS011;45945;53.350;55.922;2023-05-02T00:20:38;11.70;;;5.53;;
60068;SDS011;45945;53.350;55.922;2023-05-02T00:21:39;11.75;;;5.70;;
60068;SDS011;45945;53.350;55.922;2023-05-02T00:22:40;12.70;;;5.93;;
60068;SDS011;45945;53.350;55.922;2023-05-02T00:23:41;10.32;;;5.78;;
60068;SDS011;45945;53.350;55.922;2023-05-02T00:24:42;9.50;;;5.82;;
60068;SDS011;45945;53.350;55.922;2023-05-02T00:25:43;11.50;;;5.88;;
60068;SDS011;45945;53.350;55.922;2023-05-02T00:26:45;11.07;;;5.65;;
60068;SDS011;45945;53.350;55.922;2023-05-02T00:27:46;13.48;;;7.80;;
60068;SDS011;45945;53.350;55.922;2023-05-02T00:28:50;14.45;;;8.18;;
60068;SDS011;45945;53.350;55.922;2023-05-02T00:29:52;11.05;;;5.72;;
60068;SDS011;45945;53.350;55.922;2023-05-02T00:30:53;15.40;;;8.48;;
60068;SDS011;45945;53.350;55.922;2023-05-02T00:31:54;10.15;;;6.30;;
60068;SDS011;45945;53.350;55.922;2023-05-02T00:32:55;12.18;;;6.50;;
60068;SDS011;45945;53.350;55.922;2023-05-02T00:33:56;9.35;;;5.97;;
60068;SDS011;45945;53.350;55.922;2023-05-02T00:34:57;11.00;;;5.97;;
60068;SDS011;45945;53.350;55.922;2023-05-02T00:35:57;8.98;;;5.65;;
60068;SDS011;45945;53.350;55.922;2023-05-02T00:36:58;12.23;;;5.65;;
60068;SDS011;45945;53.350;55.922;2023-05-02T00:37:59;12.85;;;5.70;;
60068;SDS011;45945;53.350;55.922;2023-05-02T00:39:00;9.68;;;5.65;;
60068;SDS011;45945;53.350;55.922;2023-05-02T00:40:02;9.07;;;5.50;;
60068;SDS011;45945;53.350;55.922;2023-05-02T00:41:03;9.90;;;5.82;;
60068;SDS011;45945;53.350;55.922;2023-05-02T00:42:05;9.75;;;5.75;;
60068;SDS011;45945;53.350;55.922;2023-05-02T00:43:06;9.13;;;5.32;;
60068;SDS011;45945;53.350;55.922;2023-05-02T00:44:06;9.48;;;5.43;;
60068;SDS011;45945;53.350;55.922;2023-05-02T00:45:08;11.65;;;6.30;;
60068;SDS011;45945;53.350;55.922;2023-05-02T00:46:09;11.23;;;6.20;;
60068;SDS011;45945;53.350;55.922;2023-05-02T00:47:13;11.25;;;5.55;;
60068;SDS011;45945;53.350;55.922;2023-05-02T00:48:14;10.77;;;5.50;;
60068;SDS011;45945;53.350;55.922;2023-05-02T00:49:14;11.93;;;6.05;;
60068;SDS011;45945;53.350;55.922;2023-05-02T00:50:16;12.10;;;5.78;;
60068;SDS011;45945;53.350;55.922;2023-05-02T00:51:17;11.38;;;5.95;;
60068;SDS011;45945;53.350;55.922;2023-05-02T00:52:18;10.25;;;5.43;;
60068;SDS011;45945;53.350;55.922;2023-05-02T00:53:20;10.80;;;5.50;;
60068;SDS011;45945;53.350;55.922;2023-05-02T00:54:21;12.02;;;6.40;;
60068;SDS011;45945;53.350;55.922;2023-05-02T00:55:21;9.82;;;5.55;;
60068;SDS011;45945;53.350;55.922;2023-05-02T00:56:22;12.15;;;5.70;;
60068;SDS011;45945;53.350;55.922;2023-05-02T00:57:23;10.98;;;5.82;;
60068;SDS011;45945;53.350;55.922;2023-05-02T00:58:25;12.68;;;5.82;;
60068;SDS011;45945;53.350;55.922;2023-05-02T00:59:26;8.65;;;5.20;;
60068;SDS011;45945;53.350;55.922;2023-05-02T01:00:35;10.88;;;5.93;;
60068;SDS011;45945;53.350;55.922;2023-05-02T01:01:55;11.07;;;6.00;;
60068;SDS011;45945;53.350;55.922;2023-05-02T01:03:35;9.93;;;5.40;;
60068;SDS011;45945;53.350;55.922;2023-05-02T01:04:29;11.50;;;5.45;;
60068;SDS011;45945;53.350;55.922;2023-05-02T01:05:34;9.70;;;5.38;;
60068;SDS011;45945;53.350;55.922;2023-05-02T01:09:01;10.57;;;5.28;;
60068;SDS011;45945;53.350;55.922;2023-05-02T01:11:14;10.18;;;5.40;;
60068;SDS011;45945;53.350;55.922;2023-05-02T01:13:35;9.47;;;5.47;;
60068;SDS011;45945;53.350;55.922;2023-05-02T01:14:41;11.25;;;5.78;;
60068;SDS011;45945;53.350;55.922;2023-05-02T01:15:42;9.57;;;5.30;;
60068;SDS011;45945;53.350;55.922;2023-05-02T01:16:44;13.00;;;5.53;;
60068;SDS011;45945;53.350;55.922;2023-05-02T01:17:46;11.20;;;5.97;;
60068;SDS011;45945;53.350;55.922;2023-05-02T01:18:49;9.48;;;5.38;;
60068;SDS011;45945;53.350;55.922;2023-05-02T01:19:50;11.15;;;6.28;;
60068;SDS011;45945;53.350;55.922;2023-05-02T01:20:53;8.60;;;5.30;;
60068;SDS011;45945;53.350;55.922;2023-05-02T01:21:56;9.65;;;6.15;;
60068;SDS011;45945;53.350;55.922;2023-05-02T01:22:59;8.95;;;5.00;;
60068;SDS011;45945;53.350;55.922;2023-05-02T01:24:09;10.60;;;5.32;;
60068;SDS011;45945;53.350;55.922;2023-05-02T01:26:29;11.00;;;5.43;;
60068;SDS011;45945;53.350;55.922;2023-05-02T01:27:39;9.75;;;5.45;;
60068;SDS011;45945;53.350;55.922;2023-05-02T01:28:58;10.85;;;5.18;;
60068;SDS011;45945;53.350;55.922;2023-05-02T01:30:00;10.25;;;5.95;;
60068;SDS011;45945;53.350;55.922;2023-05-02T01:31:02;11.77;;;5.30;;
60068;SDS011;45945;53.350;55.922;2023-05-02T01:32:04;10.23;;;4.50;;
60068;SDS011;45945;53.350;55.922;2023-05-02T01:33:06;25.00;;;15.02;;
60068;SDS011;45945;53.350;55.922;2023-05-02T01:34:09;11.75;;;6.03;;
60068;SDS011;45945;53.350;55.922;2023-05-02T01:35:10;11.38;;;5.63;;
60068;SDS011;45945;53.350;55.922;2023-05-02T01:36:14;11.00;;;5.40;;
60068;SDS011;45945;53.350;55.922;2023-05-02T01:37:15;10.38;;;5.70;;
60068;SDS011;45945;53.350;55.922;2023-05-02T01:38:18;12.20;;;6.63;;
60068;SDS011;45945;53.350;55.922;2023-05-02T01:39:21;12.32;;;4.90;;
60068;SDS011;45945;53.350;55.922;2023-05-02T01:40:22;7.78;;;5.10;;
60068;SDS011;45945;53.350;55.922;2023-05-02T01:41:25;11.38;;;5.60;;
60068;SDS011;45945;53.350;55.922;2023-05-02T01:42:27;10.50;;;5.05;;
60068;SDS011;45945;53.350;55.922;2023-05-02T01:43:28;11.43;;;6.35;;
60068;SDS011;45945;53.350;55.922;2023-05-02T01:44:30;9.73;;;5.68;;
60068;SDS011;45945;53.350;55.922;2023-05-02T01:45:32;9.80;;;5.88;;
60068;SDS011;45945;53.350;55.922;2023-05-02T01:46:37;9.88;;;5.43;;
60068;SDS011;45945;53.350;55.922;2023-05-02T01:47:39;9.23;;;5.28;;
60068;SDS011;45945;53.350;55.922;2023-05-02T01:48:43;11.93;;;5.38;;
60068;SDS011;45945;53.350;55.922;2023-05-02T01:49:45;14.23;;;5.68;;
60068;SDS011;45945;53.350;55.922;2023-05-02T01:50:47;10.20;;;5.53;;
60068;SDS011;45945;53.350;55.922;2023-05-02T01:51:48;9.30;;;5.32;;
60068;SDS011;45945;53.350;55.922;2023-05-02T01:52:50;10.82;;;5.20;;
60068;SDS011;45945;53.350;55.922;2023-05-02T01:53:52;10.88;;;5.13;;
60068;SDS011;45945;53.350;55.922;2023-05-02T01:54:54;11.70;;;5.78;;
60068;SDS011;45945;53.350;55.922;2023-05-02T01:55:55;10.15;;;5.80;;
60068;SDS011;45945;53.350;55.922;2023-05-02T01:56:58;10.27;;;5.13;;
60068;SDS011;45945;53.350;55.922;2023-05-02T01:58:01;11.38;;;5.70;;
60068;SDS011;45945;53.350;55.922;2023-05-02T01:59:04;11.40;;;5.70;;
60068;SDS011;45945;53.350;55.922;2023-05-02T02:00:06;10.40;;;6.10;;
60068;SDS011;45945;53.350;55.922;2023-05-02T02:01:14;10.23;;;5.63;;
60068;SDS011;45945;53.350;55.922;2023-05-02T02:02:15;11.93;;;5.65;;
60068;SDS011;45945;53.350;55.922;2023-05-02T02:03:18;10.35;;;5.25;;
60068;SDS011;45945;53.350;55.922;2023-05-02T02:04:20;9.20;;;5.07;;
60068;SDS011;45945;53.350;55.922;2023-05-02T02:05:21;12.82;;;5.70;;
60068;SDS011;45945;53.350;55.922;2023-05-02T02:06:24;11.35;;;6.00;;
60068;SDS011;45945;53.350;55.922;2023-05-02T02:07:25;10.80;;;5.55;;
60068;SDS011;45945;53.350;55.922;2023-05-02T02:08:26;8.80;;;4.95;;
60068;SDS011;45945;53.350;55.922;2023-05-02T02:09:27;12.32;;;5.85;;
60068;SDS011;45945;53.350;55.922;2023-05-02T02:10:29;13.82;;;5.03;;
60068;SDS011;45945;53.350;55.922;2023-05-02T02:11:35;10.68;;;5.32;;
60068;SDS011;45945;53.350;55.922;2023-05-02T02:12:53;9.45;;;4.90;;
60068;SDS011;45945;53.350;55.922;2023-05-02T02:13:59;10.93;;;5.25;;
60068;SDS011;45945;53.350;55.922;2023-05-02T02:16:08;9.30;;;5.32;;
60068;SDS011;45945;53.350;55.922;2023-05-02T02:17:12;8.18;;;4.07;;
60068;SDS011;45945;53.350;55.922;2023-05-02T02:18:19;9.80;;;5.22;;
60068;SDS011;45945;53.350;55.922;2023-05-02T02:19:21;8.00;;;4.85;;
60068;SDS011;45945;53.350;55.922;2023-05-02T02:20:22;10.65;;;5.32;;
60068;SDS011;45945;53.350;55.922;2023-05-02T02:21:24;10.65;;;4.90;;
60068;SDS011;45945;53.350;55.922;2023-05-02T02:22:26;9.77;;;5.20;;
60068;SDS011;45945;53.350;55.922;2023-05-02T02:23:27;9.85;;;5.15;;
60068;SDS011;45945;53.350;55.922;2023-05-02T02:24:29;11.57;;;5.35;;
60068;SDS011;45945;53.350;55.922;2023-05-02T02:25:31;10.18;;;5.68;;
60068;SDS011;45945;53.350;55.922;2023-05-02T02:26:34;9.88;;;5.38;;
60068;SDS011;45945;53.350;55.922;2023-05-02T02:27:36;8.05;;;4.63;;
60068;SDS011;45945;53.350;55.922;2023-05-02T02:28:37;10.48;;;5.47;;
60068;SDS011;45945;53.350;55.922;2023-05-02T02:29:38;13.68;;;5.85;;
60068;SDS011;45945;53.350;55.922;2023-05-02T02:30:39;8.93;;;5.28;;
60068;SDS011;45945;53.350;55.922;2023-05-02T02:31:40;10.70;;;5.20;;
60068;SDS011;45945;53.350;55.922;2023-05-02T02:32:42;10.15;;;5.50;;
60068;SDS011;45945;53.350;55.922;2023-05-02T02:33:43;10.93;;;5.97;;
60068;SDS011;45945;53.350;55.922;2023-05-02T02:34:43;9.18;;;5.07;;
60068;SDS011;45945;53.350;55.922;2023-05-02T02:35:47;12.35;;;5.88;;
60068;SDS011;45945;53.350;55.922;2023-05-02T02:38:37;9.73;;;5.13;;
60068;SDS011;45945;53.350;55.922;2023-05-02T02:39:30;10.18;;;5.80;;
60068;SDS011;45945;53.350;55.922;2023-05-02T02:41:41;10.82;;;5.03;;
60068;SDS011;45945;53.350;55.922;2023-05-02T02:42:43;9.10;;;5.07;;
60068;SDS011;45945;53.350;55.922;2023-05-02T02:49:06;10.00;;;4.57;;
60068;SDS011;45945;53.350;55.922;2023-05-02T02:50:01;9.93;;;5.38;;
60068;SDS011;45945;53.350;55.922;2023-05-02T02:51:12;9.55;;;5.00;;
60068;SDS011;45945;53.350;55.922;2023-05-02T02:53:23;8.25;;;5.00;;
60068;SDS011;45945;53.350;55.922;2023-05-02T02:54:30;9.35;;;5.13;;
60068;SDS011;45945;53.350;55.922;2023-05-02T02:56:43;9.05;;;5.03;;
60068;SDS011;45945;53.350;55.922;2023-05-02T02:57:47;12.98;;;5.45;;
60068;SDS011;45945;53.350;55.922;2023-05-02T02:58:59;9.20;;;5.10;;
60068;SDS011;45945;53.350;55.922;2023-05-02T03:00:06;11.05;;;5.22;;
60068;SDS011;45945;53.350;55.922;2023-05-02T03:01:09;11.57;;;5.15;;
60068;SDS011;45945;53.350;55.922;2023-05-02T03:02:12;11.65;;;5.05;;
60068;SDS011;45945;53.350;55.922;2023-05-02T03:03:14;11.13;;;5.35;;
60068;SDS011;45945;53.350;55.922;2023-05-02T03:04:15;9.60;;;5.43;;
60068;SDS011;45945;53.350;55.922;2023-05-02T03:05:18;13.60;;;5.22;;
60068;SDS011;45945;53.350;55.922;2023-05-02T03:06:21;19.45;;;5.05;;
60068;SDS011;45945;53.350;55.922;2023-05-02T03:07:28;11.38;;;5.35;;
60068;SDS011;45945;53.350;55.922;2023-05-02T03:08:39;9.98;;;5.30;;
60068;SDS011;45945;53.350;55.922;2023-05-02T03:09:42;9.20;;;4.70;;
60068;SDS011;45945;53.350;55.922;2023-05-02T03:10:45;10.35;;;5.15;;
60068;SDS011;45945;53.350;55.922;2023-05-02T03:11:46;9.00;;;5.15;;
60068;SDS011;45945;53.350;55.922;2023-05-02T03:12:48;9.40;;;4.53;;
60068;SDS011;45945;53.350;55.922;2023-05-02T03:13:49;9.02;;;4.95;;
60068;SDS011;45945;53.350;55.922;2023-05-02T03:14:54;9.40;;;4.70;;
60068;SDS011;45945;53.350;55.922;2023-05-02T03:17:03;10.00;;;4.93;;
60068;SDS011;45945;53.350;55.922;2023-05-02T03:18:04;9.82;;;5.10;;
60068;SDS011;45945;53.350;55.922;2023-05-02T03:19:05;7.25;;;4.50;;
60068;SDS011;45945;53.350;55.922;2023-05-02T03:20:07;8.80;;;4.70;;
60068;SDS011;45945;53.350;55.922;2023-05-02T03:21:08;8.40;;;4.85;;
60068;SDS011;45945;53.350;55.922;2023-05-02T03:22:09;13.02;;;4.63;;
60068;SDS011;45945;53.350;55.922;2023-05-02T03:23:10;10.45;;;5.30;;
60068;SDS011;45945;53.350;55.922;2023-05-02T03:24:11;10.38;;;4.63;;
60068;SDS011;45945;53.350;55.922;2023-05-02T03:25:12;8.93;;;4.90;;
60068;SDS011;45945;53.350;55.922;2023-05-02T03:26:18;8.82;;;4.82;;
60068;SDS011;45945;53.350;55.922;2023-05-02T03:27:20;7.85;;;4.05;;
60068;SDS011;45945;53.350;55.922;2023-05-02T03:28:21;8.30;;;4.25;;
60068;SDS011;45945;53.350;55.922;2023-05-02T03:29:24;9.63;;;4.88;;
60068;SDS011;45945;53.350;55.922;2023-05-02T03:30:25;12.50;;;4.40;;
60068;SDS011;45945;53.350;55.922;2023-05-02T03:31:26;10.15;;;4.90;;
60068;SDS011;45945;53.350;55.922;2023-05-02T03:32:27;7.90;;;4.32;;
60068;SDS011;45945;53.350;55.922;2023-05-02T03:33:28;10.60;;;4.78;;
60068;SDS011;45945;53.350;55.922;2023-05-02T03:34:29;8.63;;;4.40;;
60068;SDS011;45945;53.350;55.922;2023-05-02T03:35:30;8.68;;;4.90;;
60068;SDS011;45945;53.350;55.922;2023-05-02T03:36:31;8.02;;;4.45;;
60068;SDS011;45945;53.350;55.922;2023-05-02T03:37:33;8.25;;;4.75;;
60068;SDS011;45945;53.350;55.922;2023-05-02T03:38:34;10.40;;;4.68;;
60068;SDS011;45945;53.350;55.922;2023-05-02T03:39:39;9.35;;;4.45;;
60068;SDS011;45945;53.350;55.922;2023-05-02T03:40:40;11.10;;;4.80;;
60068;SDS011;45945;53.350;55.922;2023-05-02T03:41:44;7.30;;;4.45;;
60068;SDS011;45945;53.350;55.922;2023-05-02T03:42:50;8.57;;;4.53;;
60068;SDS011;45945;53.350;55.922;2023-05-02T03:44:00;8.18;;;4.13;;
60068;SDS011;45945;53.350;55.922;2023-05-02T03:45:02;9.48;;;4.60;;
60068;SDS011;45945;53.350;55.922;2023-05-02T03:46:07;8.55;;;4.25;;
60068;SDS011;45945;53.350;55.922;2023-05-02T03:47:10;11.05;;;4.22;;
60068;SDS011;45945;53.350;55.922;2023-05-02T03:48:15;9.13;;;4.50;;
60068;SDS011;45945;53.350;55.922;2023-05-02T03:49:16;8.98;;;4.60;;
60068;SDS011;45945;53.350;55.922;2023-05-02T03:50:19;10.02;;;4.55;;
60068;SDS011;45945;53.350;55.922;2023-05-02T03:51:22;12.23;;;4.28;;
60068;SDS011;45945;53.350;55.922;2023-05-02T03:52:26;8.60;;;4.13;;
60068;SDS011;45945;53.350;55.922;2023-05-02T03:53:29;8.30;;;4.32;;
60068;SDS011;45945;53.350;55.922;2023-05-02T03:54:32;9.20;;;4.55;;
60068;SDS011;45945;53.350;55.922;2023-05-02T03:55:37;7.78;;;4.22;;
60068;SDS011;45945;53.350;55.922;2023-05-02T03:56:38;7.03;;;3.80;;
60068;SDS011;45945;53.350;55.922;2023-05-02T03:58:02;8.27;;;4.40;;
60068;SDS011;45945;53.350;55.922;2023-05-02T03:59:03;8.63;;;3.90;;
60068;SDS011;45945;53.350;55.922;2023-05-02T04:00:04;8.50;;;3.90;;
60068;SDS011;45945;53.350;55.922;2023-05-02T04:01:12;7.72;;;3.90;;
60068;SDS011;45945;53.350;55.922;2023-05-02T04:02:14;8.05;;;4.00;;
60068;SDS011;45945;53.350;55.922;2023-05-02T04:03:20;7.97;;;3.85;;
60068;SDS011;45945;53.350;55.922;2023-05-02T04:04:21;7.57;;;4.20;;
60068;SDS011;45945;53.350;55.922;2023-05-02T04:05:25;9.68;;;4.22;;
60068;SDS011;45945;53.350;55.922;2023-05-02T04:06:26;8.25;;;4.10;;
60068;SDS011;45945;53.350;55.922;2023-05-02T04:07:33;8.23;;;3.95;;
60068;SDS011;45945;53.350;55.922;2023-05-02T04:08:37;7.32;;;3.88;;
60068;SDS011;45945;53.350;55.922;2023-05-02T04:09:39;6.50;;;3.67;;
60068;SDS011;45945;53.350;55.922;2023-05-02T04:10:42;8.05;;;3.72;;
60068;SDS011;45945;53.350;55.922;2023-05-02T04:11:45;8.98;;;3.40;;
60068;SDS011;45945;53.350;55.922;2023-05-02T04:12:47;7.75;;;3.65;;
60068;SDS011;45945;53.350;55.922;2023-05-02T04:13:49;8.20;;;3.92;;
60068;SDS011;45945;53.350;55.922;2023-05-02T04:14:52;7.45;;;4.25;;
60068;SDS011;45945;53.350;55.922;2023-05-02T04:15:54;6.60;;;3.75;;
60068;SDS011;45945;53.350;55.922;2023-05-02T04:16:57;6.78;;;4.00;;
60068;SDS011;45945;53.350;55.922;2023-05-02T04:18:17;6.88;;;3.40;;
60068;SDS011;45945;53.350;55.922;2023-05-02T04:19:17;7.25;;;3.63;;
60068;SDS011;45945;53.350;55.922;2023-05-02T04:20:18;10.80;;;3.90;;
60068;SDS011;45945;53.350;55.922;2023-05-02T04:21:22;7.85;;;4.00;;
60068;SDS011;45945;53.350;55.922;2023-05-02T04:22:24;7.80;;;4.60;;
60068;SDS011;45945;53.350;55.922;2023-05-02T04:23:29;8.95;;;3.47;;
60068;SDS011;45945;53.350;55.922;2023-05-02T04:24:33;8.73;;;3.75;;
60068;SDS011;45945;53.350;55.922;2023-05-02T04:25:34;8.80;;;6.38;;
60068;SDS011;45945;53.350;55.922;2023-05-02T04:26:37;7.55;;;4.65;;
60068;SDS011;45945;53.350;55.922;2023-05-02T04:27:42;7.68;;;4.10;;
60068;SDS011;45945;53.350;55.922;2023-05-02T04:28:45;6.55;;;3.25;;
60068;SDS011;45945;53.350;55.922;2023-05-02T04:29:49;7.00;;;3.78;;
60068;SDS011;45945;53.350;55.922;2023-05-02T04:30:51;8.05;;;4.00;;
60068;SDS011;45945;53.350;55.922;2023-05-02T04:31:55;7.53;;;3.60;;
60068;SDS011;45945;53.350;55.922;2023-05-02T04:32:59;8.15;;;3.92;;
60068;SDS011;45945;53.350;55.922;2023-05-02T04:34:04;7.07;;;4.20;;
60068;SDS011;45945;53.350;55.922;2023-05-02T04:35:10;7.43;;;4.15;;
60068;SDS011;45945;53.350;55.922;2023-05-02T04:36:12;6.68;;;3.90;;
60068;SDS011;45945;53.350;55.922;2023-05-02T04:37:16;8.13;;;4.47;;
60068;SDS011;45945;53.350;55.922;2023-05-02T04:38:19;8.38;;;3.75;;
60068;SDS011;45945;53.350;55.922;2023-05-02T04:39:22;7.43;;;3.67;;
60068;SDS011;45945;53.350;55.922;2023-05-02T04:40:34;10.80;;;4.22;;
60068;SDS011;45945;53.350;55.922;2023-05-02T04:41:39;8.02;;;3.85;;
60068;SDS011;45945;53.350;55.922;2023-05-02T04:42:41;9.25;;;3.88;;
60068;SDS011;45945;53.350;55.922;2023-05-02T04:43:51;8.27;;;4.35;;
60068;SDS011;45945;53.350;55.922;2023-05-02T04:44:52;8.80;;;3.72;;
60068;SDS011;45945;53.350;55.922;2023-05-02T04:45:53;8.55;;;4.30;;
60068;SDS011;45945;53.350;55.922;2023-05-02T04:47:03;8.27;;;4.03;;
60068;SDS011;45945;53.350;55.922;2023-05-02T04:48:04;7.22;;;3.95;;
60068;SDS011;45945;53.350;55.922;2023-05-02T04:49:05;10.68;;;3.72;;
60068;SDS011;45945;53.350;55.922;2023-05-02T04:50:07;7.13;;;3.78;;
60068;SDS011;45945;53.350;55.922;2023-05-02T04:51:09;8.55;;;3.90;;
60068;SDS011;45945;53.350;55.922;2023-05-02T04:52:10;6.90;;;4.20;;
60068;SDS011;45945;53.350;55.922;2023-05-02T04:53:11;8.27;;;4.05;;
60068;SDS011;45945;53.350;55.922;2023-05-02T04:54:12;8.25;;;3.47;;
60068;SDS011;45945;53.350;55.922;2023-05-02T04:55:15;9.25;;;3.60;;
60068;SDS011;45945;53.350;55.922;2023-05-02T04:56:16;6.03;;;3.17;;
60068;SDS011;45945;53.350;55.922;2023-05-02T04:57:17;8.48;;;4.10;;
60068;SDS011;45945;53.350;55.922;2023-05-02T04:58:23;9.60;;;4.20;;
60068;SDS011;45945;53.350;55.922;2023-05-02T04:59:31;5.97;;;3.30;;
60068;SDS011;45945;53.350;55.922;2023-05-02T05:00:34;7.35;;;4.00;;
60068;SDS011;45945;53.350;55.922;2023-05-02T05:01:36;6.68;;;3.20;;
60068;SDS011;45945;53.350;55.922;2023-05-02T05:02:38;8.38;;;4.43;;
60068;SDS011;45945;53.350;55.922;2023-05-02T05:03:39;7.05;;;3.55;;
60068;SDS011;45945;53.350;55.922;2023-05-02T05:04:41;8.40;;;3.17;;
60068;SDS011;45945;53.350;55.922;2023-05-02T05:05:43;7.20;;;3.70;;
60068;SDS011;45945;53.350;55.922;2023-05-02T05:06:47;7.60;;;3.70;;
60068;SDS011;45945;53.350;55.922;2023-05-02T05:07:49;5.93;;;3.47;;
60068;SDS011;45945;53.350;55.922;2023-05-02T05:08:52;7.65;;;3.75;;
60068;SDS011;45945;53.350;55.922;2023-05-02T05:09:53;7.88;;;4.18;;
60068;SDS011;45945;53.350;55.922;2023-05-02T05:10:55;7.03;;;3.40;;
60068;SDS011;45945;53.350;55.922;2023-05-02T05:11:57;8.05;;;3.92;;
60068;SDS011;45945;53.350;55.922;2023-05-02T05:12:58;11.00;;;3.95;;
60068;SDS011;45945;53.350;55.922;2023-05-02T05:14:00;7.50;;;3.83;;
60068;SDS011;45945;53.350;55.922;2023-05-02T05:15:04;7.18;;;3.67;;
60068;SDS011;45945;53.350;55.922;2023-05-02T05:16:07;6.47;;;4.00;;
60068;SDS011;45945;53.350;55.922;2023-05-02T05:17:08;7.93;;;3.65;;
60068;SDS011;45945;53.350;55.922;2023-05-02T05:18:09;6.18;;;3.53;;
60068;SDS011;45945;53.350;55.922;2023-05-02T05:19:10;8.50;;;3.67;;
60068;SDS011;45945;53.350;55.922;2023-05-02T05:20:11;7.35;;;3.78;;
60068;SDS011;45945;53.350;55.922;2023-05-02T05:21:13;6.20;;;3.72;;
60068;SDS011;45945;53.350;55.922;2023-05-02T05:22:14;8.35;;;3.58;;
60068;SDS011;45945;53.350;55.922;2023-05-02T05:23:15;8.52;;;3.22;;
60068;SDS011;45945;53.350;55.922;2023-05-02T05:24:16;8.75;;;3.85;;
60068;SDS011;45945;53.350;55.922;2023-05-02T05:25:16;7.35;;;3.80;;
60068;SDS011;45945;53.350;55.922;2023-05-02T05:26:20;7.82;;;4.00;;
60068;SDS011;45945;53.350;55.922;2023-05-02T05:27:22;9.50;;;4.10;;
60068;SDS011;45945;53.350;55.922;2023-05-02T05:28:23;9.18;;;3.75;;
60068;SDS011;45945;53.350;55.922;2023-05-02T05:29:24;8.25;;;3.30;;
60068;SDS011;45945;53.350;55.922;2023-05-02T05:30:25;8.63;;;3.60;;
60068;SDS011;45945;53.350;55.922;2023-05-02T05:31:27;9.15;;;4.97;;
60068;SDS011;45945;53.350;55.922;2023-05-02T05:32:34;8.60;;;3.40;;
60068;SDS011;45945;53.350;55.922;2023-05-02T05:33:35;7.90;;;3.75;;
60068;SDS011;45945;53.350;55.922;2023-05-02T05:34:37;6.97;;;3.50;;
60068;SDS011;45945;53.350;55.922;2023-05-02T05:35:38;9.73;;;3.92;;
60068;SDS011;45945;53.350;55.922;2023-05-02T05:36:39;7.13;;;3.80;;
60068;SDS011;45945;53.350;55.922;2023-05-02T05:37:40;6.13;;;3.33;;
60068;SDS011;45945;53.350;55.922;2023-05-02T05:38:44;8.85;;;3.90;;
60068;SDS011;45945;53.350;55.922;2023-05-02T05:39:46;8.10;;;3.42;;
60068;SDS011;45945;53.350;55.922;2023-05-02T05:40:50;6.93;;;3.88;;
60068;SDS011;45945;53.350;55.922;2023-05-02T05:41:51;7.35;;;3.47;;
60068;SDS011;45945;53.350;55.922;2023-05-02T05:42:52;8.05;;;3.78;;
60068;SDS011;45945;53.350;55.922;2023-05-02T05:44:00;6.43;;;4.15;;
60068;SDS011;45945;53.350;55.922;2023-05-02T05:45:03;7.88;;;4.95;;
60068;SDS011;45945;53.350;55.922;2023-05-02T05:46:04;9.05;;;4.05;;
60068;SDS011;45945;53.350;55.922;2023-05-02T05:47:07;7.88;;;3.92;;
60068;SDS011;45945;53.350;55.922;2023-05-02T05:48:08;7.15;;;4.00;;
60068;SDS011;45945;53.350;55.922;2023-05-02T05:49:14;8.90;;;4.25;;
60068;SDS011;45945;53.350;55.922;2023-05-02T05:50:16;7.85;;;3.88;;
60068;SDS011;45945;53.350;55.922;2023-05-02T05:51:19;8.73;;;3.53;;
60068;SDS011;45945;53.350;55.922;2023-05-02T05:52:20;6.18;;;3.60;;
60068;SDS011;45945;53.350;55.922;2023-05-02T05:53:21;7.90;;;3.47;;
60068;SDS011;45945;53.350;55.922;2023-05-02T05:54:23;6.57;;;3.67;;
60068;SDS011;45945;53.350;55.922;2023-05-02T05:55:26;6.93;;;3.40;;
60068;SDS011;45945;53.350;55.922;2023-05-02T05:56:26;6.28;;;3.45;;
60068;SDS011;45945;53.350;55.922;2023-05-02T05:57:38;7.65;;;3.85;;
60068;SDS011;45945;53.350;55.922;2023-05-02T05:58:39;8.68;;;3.20;;
60068;SDS011;45945;53.350;55.922;2023-05-02T05:59:41;6.65;;;3.75;;
60068;SDS011;45945;53.350;55.922;2023-05-02T06:00:42;7.25;;;3.35;;
60068;SDS011;45945;53.350;55.922;2023-05-02T06:01:43;5.57;;;3.28;;
60068;SDS011;45945;53.350;55.922;2023-05-02T06:02:45;6.32;;;3.00;;
60068;SDS011;45945;53.350;55.922;2023-05-02T06:03:53;7.60;;;3.47;;
60068;SDS011;45945;53.350;55.922;2023-05-02T06:04:54;10.35;;;3.55;;
60068;SDS011;45945;53.350;55.922;2023-05-02T06:05:57;8.55;;;3.90;;
60068;SDS011;45945;53.350;55.922;2023-05-02T06:06:57;7.75;;;3.25;;
60068;SDS011;45945;53.350;55.922;2023-05-02T06:08:01;8.75;;;3.80;;
60068;SDS011;45945;53.350;55.922;2023-05-02T06:09:02;9.70;;;3.85;;
60068;SDS011;45945;53.350;55.922;2023-05-02T06:10:04;6.78;;;3.50;;
60068;SDS011;45945;53.350;55.922;2023-05-02T06:11:08;7.32;;;3.42;;
60068;SDS011;45945;53.350;55.922;2023-05-02T06:12:10;6.68;;;3.70;;
60068;SDS011;45945;53.350;55.922;2023-05-02T06:13:11;7.38;;;3.42;;
60068;SDS011;45945;53.350;55.922;2023-05-02T06:14:16;6.53;;;3.28;;
60068;SDS011;45945;53.350;55.922;2023-05-02T06:15:19;7.65;;;3.60;;
60068;SDS011;45945;53.350;55.922;2023-05-02T06:16:20;6.93;;;3.35;;
60068;SDS011;45945;53.350;55.922;2023-05-02T06:17:21;7.05;;;3.65;;
60068;SDS011;45945;53.350;55.922;2023-05-02T06:18:26;7.50;;;3.55;;
60068;SDS011;45945;53.350;55.922;2023-05-02T06:19:26;7.13;;;3.33;;
60068;SDS011;45945;53.350;55.922;2023-05-02T06:20:27;7.18;;;2.97;;
60068;SDS011;45945;53.350;55.922;2023-05-02T06:21:28;7.82;;;3.42;;
60068;SDS011;45945;53.350;55.922;2023-05-02T06:22:29;6.93;;;3.38;;
60068;SDS011;45945;53.350;55.922;2023-05-02T06:23:30;7.82;;;3.47;;
60068;SDS011;45945;53.350;55.922;2023-05-02T06:24:33;6.95;;;3.60;;
60068;SDS011;45945;53.350;55.922;2023-05-02T06:25:36;7.30;;;3.35;;
60068;SDS011;45945;53.350;55.922;2023-05-02T06:26:38;7.28;;;3.50;;
60068;SDS011;45945;53.350;55.922;2023-05-02T06:27:42;6.30;;;3.13;;
60068;SDS011;45945;53.350;55.922;2023-05-02T06:28:43;7.32;;;3.42;;
60068;SDS011;45945;53.350;55.922;2023-05-02T06:29:43;7.90;;;3.38;;